sensor_id;sensor_type;location;lat;lon;timestamp;P1;durP1;ratioP1;P2;durP2;ratioP2
77802;SDS011;66993;48.256;16.422;2023-07-29T00:01:43;4.4;;;2.9;;
77802;SDS011;66993;48.256;16.422;2023-07-29T00:06:44;5.4;;;2.8;;
77802;SDS011;66993;48.256;16.422;2023-07-29T00:11:45;5.3;;;2.8;;
77802;SDS011;66993;48.256;16.422;2023-07-29T00:16:46;5.4;;;3.1;;
77802;SDS011;66993;48.256;16.422;2023-07-29T00:21:47;4.7;;;2.7;;
77802;SDS011;66993;48.256;16.422;2023-07-29T00:26:49;6.1;;;3.2;;
77802;SDS011;66993;48.256;16.422;2023-07-29T00:31:50;5.9;;;2.9;;
77802;SDS011;66993;48.256;16.422;2023-07-29T00:36:51;6.8;;;3.0;;
77802;SDS011;66993;48.256;16.422;2023-07-29T00:41:52;6.7;;;3.1;;
77802;SDS011;66993;48.256;16.422;2023-07-29T00:46:53;4.6;;;3.0;;
77802;SDS011;66993;48.256;16.422;2023-07-29T00:51:55;6.3;;;3.2;;
77802;SDS011;66993;48.256;16.422;2023-07-29T00:56:56;5.5;;;3.3;;
77802;SDS011;66993;48.256;16.422;2023-07-29T01:01:57;6.5;;;3.2;;
77802;SDS011;66993;48.256;16.422;2023-07-29T01:07:01;6.0;;;2.9;;
77802;SDS011;66993;48.256;16.422;2023-07-29T01:12:01;5.7;;;2.9;;
77802;SDS011;66993;48.256;16.422;2023-07-29T01:17:02;5.0;;;3.1;;
77802;SDS011;66993;48.256;16.422;2023-07-29T01:22:02;5.2;;;3.0;;
77802;SDS011;66993;48.256;16.422;2023-07-29T01:27:03;5.4;;;3.1;;
77802;SDS011;66993;48.256;16.422;2023-07-29T01:32:07;5.0;;;3.1;;
77802;SDS011;66993;48.256;16.422;2023-07-29T01:37:06;6.7;;;3.2;;
77802;SDS011;66993;48.256;16.422;2023-07-29T01:42:07;6.2;;;3.5;;
77802;SDS011;66993;48.256;16.422;2023-07-29T01:47:08;5.9;;;3.1;;
77802;SDS011;66993;48.256;16.422;2023-07-29T01:52:09;5.9;;;3.1;;
77802;SDS011;66993;48.256;16.422;2023-07-29T01:57:10;6.3;;;3.2;;
77802;SDS011;66993;48.256;16.422;2023-07-29T02:02:12;5.5;;;3.4;;
77802;SDS011;66993;48.256;16.422;2023-07-29T02:07:13;6.4;;;3.3;;
77802;SDS011;66993;48.256;16.422;2023-07-29T02:12:14;5.3;;;3.4;;
77802;SDS011;66993;48.256;16.422;2023-07-29T02:17:15;5.2;;;3.2;;
77802;SDS011;66993;48.256;16.422;2023-07-29T02:22:17;6.2;;;3.3;;
77802;SDS011;66993;48.256;16.422;2023-07-29T02:27:18;5.0;;;2.9;;
77802;SDS011;66993;48.256;16.422;2023-07-29T02:32:19;5.1;;;3.2;;
77802;SDS011;66993;48.256;16.422;2023-07-29T02:37:20;5.1;;;3.1;;
77802;SDS011;66993;48.256;16.422;2023-07-29T02:42:22;5.9;;;3.0;;
77802;SDS011;66993;48.256;16.422;2023-07-29T02:47:23;5.9;;;2.9;;
77802;SDS011;66993;48.256;16.422;2023-07-29T02:52:24;4.7;;;2.7;;
77802;SDS011;66993;48.256;16.422;2023-07-29T02:57:25;5.0;;;3.3;;
77802;SDS011;66993;48.256;16.422;2023-07-29T03:02:27;4.9;;;2.9;;
77802;SDS011;66993;48.256;16.422;2023-07-29T03:07:28;4.8;;;2.6;;
77802;SDS011;66993;48.256;16.422;2023-07-29T03:12:30;5.3;;;3.0;;
77802;SDS011;66993;48.256;16.422;2023-07-29T03:17:30;4.9;;;2.9;;
77802;SDS011;66993;48.256;16.422;2023-07-29T03:22:32;4.4;;;3.0;;
77802;SDS011;66993;48.256;16.422;2023-07-29T03:27:33;5.5;;;2.5;;
77802;SDS011;66993;48.256;16.422;2023-07-29T03:32:34;4.6;;;2.5;;
77802;SDS011;66993;48.256;16.422;2023-07-29T03:37:35;4.6;;;2.4;;
77802;SDS011;66993;48.256;16.422;2023-07-29T03:42:36;4.4;;;2.4;;
77802;SDS011;66993;48.256;16.422;2023-07-29T03:47:37;4.1;;;2.5;;
77802;SDS011;66993;48.256;16.422;2023-07-29T03:52:39;4.3;;;2.4;;
77802;SDS011;66993;48.256;16.422;2023-07-29T03:57:40;4.2;;;2.4;;
77802;SDS011;66993;48.256;16.422;2023-07-29T04:02:41;4.2;;;2.4;;
77802;SDS011;66993;48.256;16.422;2023-07-29T04:07:42;4.5;;;2.1;;
77802;SDS011;66993;48.256;16.422;2023-07-29T04:12:44;4.1;;;2.4;;
77802;SDS011;66993;48.256;16.422;2023-07-29T04:17:45;3.6;;;2.1;;
77802;SDS011;66993;48.256;16.422;2023-07-29T04:22:46;4.3;;;2.4;;
77802;SDS011;66993;48.256;16.422;2023-07-29T04:27:47;4.1;;;2.4;;
77802;SDS011;66993;48.256;16.422;2023-07-29T04:32:49;3.7;;;2.1;;
77802;SDS011;66993;48.256;16.422;2023-07-29T04:37:50;4.8;;;2.4;;
77802;SDS011;66993;48.256;16.422;2023-07-29T04:42:51;4.7;;;2.2;;
77802;SDS011;66993;48.256;16.422;2023-07-29T04:47:52;3.9;;;2.2;;
77802;SDS011;66993;48.256;16.422;2023-07-29T04:52:53;4.4;;;2.3;;
77802;SDS011;66993;48.256;16.422;2023-07-29T04:57:55;3.7;;;2.0;;
77802;SDS011;66993;48.256;16.422;2023-07-29T05:02:56;4.2;;;2.4;;
77802;SDS011;66993;48.256;16.422;2023-07-29T05:07:57;3.6;;;2.2;;
77802;SDS011;66993;48.256;16.422;2023-07-29T05:12:58;4.0;;;2.1;;
77802;SDS011;66993;48.256;16.422;2023-07-29T05:18:00;3.7;;;2.3;;
77802;SDS011;66993;48.256;16.422;2023-07-29T05:23:01;4.4;;;2.2;;
77802;SDS011;66993;48.256;16.422;2023-07-29T05:28:02;4.5;;;2.5;;
77802;SDS011;66993;48.256;16.422;2023-07-29T05:33:04;4.2;;;2.3;;
77802;SDS011;66993;48.256;16.422;2023-07-29T05:38:05;3.7;;;2.3;;
77802;SDS011;66993;48.256;16.422;2023-07-29T05:43:06;4.1;;;2.1;;
77802;SDS011;66993;48.256;16.422;2023-07-29T05:48:07;3.8;;;1.9;;
77802;SDS011;66993;48.256;16.422;2023-07-29T05:53:08;4.1;;;2.2;;
77802;SDS011;66993;48.256;16.422;2023-07-29T05:58:10;4.3;;;2.3;;
77802;SDS011;66993;48.256;16.422;2023-07-29T06:03:11;3.9;;;1.9;;
77802;SDS011;66993;48.256;16.422;2023-07-29T06:08:12;3.3;;;1.9;;
77802;SDS011;66993;48.256;16.422;2023-07-29T06:13:13;3.2;;;1.8;;
77802;SDS011;66993;48.256;16.422;2023-07-29T06:18:15;4.2;;;2.2;;
77802;SDS011;66993;48.256;16.422;2023-07-29T06:23:16;6.0;;;2.0;;
77802;SDS011;66993;48.256;16.422;2023-07-29T06:28:17;4.1;;;1.9;;
77802;SDS011;66993;48.256;16.422;2023-07-29T06:33:19;4.3;;;2.0;;
77802;SDS011;66993;48.256;16.422;2023-07-29T06:38:19;2.8;;;1.7;;
77802;SDS011;66993;48.256;16.422;2023-07-29T06:43:22;4.0;;;1.9;;
77802;SDS011;66993;48.256;16.422;2023-07-29T06:48:22;4.1;;;1.7;;
77802;SDS011;66993;48.256;16.422;2023-07-29T06:53:24;2.9;;;1.5;;
77802;SDS011;66993;48.256;16.422;2023-07-29T06:58:24;2.9;;;1.6;;
77802;SDS011;66993;48.256;16.422;2023-07-29T07:03:26;3.6;;;1.6;;
77802;SDS011;66993;48.256;16.422;2023-07-29T07:08:27;3.3;;;1.8;;
77802;SDS011;66993;48.256;16.422;2023-07-29T07:13:28;4.9;;;1.7;;
77802;SDS011;66993;48.256;16.422;2023-07-29T07:18:30;4.0;;;1.4;;
77802;SDS011;66993;48.256;16.422;2023-07-29T07:23:31;3.0;;;1.6;;
77802;SDS011;66993;48.256;16.422;2023-07-29T07:28:32;3.3;;;1.5;;
77802;SDS011;66993;48.256;16.422;2023-07-29T07:33:33;2.7;;;1.6;;
77802;SDS011;66993;48.256;16.422;2023-07-29T07:38:34;2.9;;;1.7;;
77802;SDS011;66993;48.256;16.422;2023-07-29T07:43:36;2.9;;;1.7;;
77802;SDS011;66993;48.256;16.422;2023-07-29T07:48:37;2.7;;;1.6;;
77802;SDS011;66993;48.256;16.422;2023-07-29T07:53:39;2.7;;;1.5;;
77802;SDS011;66993;48.256;16.422;2023-07-29T07:58:39;4.6;;;1.7;;
77802;SDS011;66993;48.256;16.422;2023-07-29T08:03:41;2.6;;;1.5;;
77802;SDS011;66993;48.256;16.422;2023-07-29T08:08:42;2.4;;;1.1;;
77802;SDS011;66993;48.256;16.422;2023-07-29T08:13:44;2.4;;;1.3;;
77802;SDS011;66993;48.256;16.422;2023-07-29T08:18:44;2.3;;;1.1;;
77802;SDS011;66993;48.256;16.422;2023-07-29T08:23:46;2.7;;;1.5;;
77802;SDS011;66993;48.256;16.422;2023-07-29T08:28:48;2.9;;;1.3;;
77802;SDS011;66993;48.256;16.422;2023-07-29T08:33:48;3.6;;;1.4;;
77802;SDS011;66993;48.256;16.422;2023-07-29T08:38:49;2.9;;;1.4;;
77802;SDS011;66993;48.256;16.422;2023-07-29T08:43:52;2.4;;;1.2;;
77802;SDS011;66993;48.256;16.422;2023-07-29T08:48:52;2.6;;;1.4;;
77802;SDS011;66993;48.256;16.422;2023-07-29T08:53:54;2.5;;;1.3;;
77802;SDS011;66993;48.256;16.422;2023-07-29T08:58:54;2.5;;;1.4;;
77802;SDS011;66993;48.256;16.422;2023-07-29T09:03:56;2.5;;;1.4;;
77802;SDS011;66993;48.256;16.422;2023-07-29T09:08:58;2.2;;;1.2;;
77802;SDS011;66993;48.256;16.422;2023-07-29T09:13:58;2.5;;;1.4;;
77802;SDS011;66993;48.256;16.422;2023-07-29T09:19:00;2.3;;;1.2;;
77802;SDS011;66993;48.256;16.422;2023-07-29T09:24:03;2.3;;;1.0;;
77802;SDS011;66993;48.256;16.422;2023-07-29T09:29:02;3.3;;;1.3;;
77802;SDS011;66993;48.256;16.422;2023-07-29T09:34:04;2.0;;;1.2;;
77802;SDS011;66993;48.256;16.422;2023-07-29T09:39:10;3.3;;;1.4;;
77802;SDS011;66993;48.256;16.422;2023-07-29T09:44:06;2.3;;;1.2;;
77802;SDS011;66993;48.256;16.422;2023-07-29T09:49:08;2.2;;;1.2;;
77802;SDS011;66993;48.256;16.422;2023-07-29T09:54:09;2.9;;;1.1;;
77802;SDS011;66993;48.256;16.422;2023-07-29T09:59:10;2.3;;;1.1;;
77802;SDS011;66993;48.256;16.422;2023-07-29T10:04:12;2.1;;;1.2;;
77802;SDS011;66993;48.256;16.422;2023-07-29T10:09:13;2.1;;;1.1;;
77802;SDS011;66993;48.256;16.422;2023-07-29T10:14:14;2.0;;;1.1;;
77802;SDS011;66993;48.256;16.422;2023-07-29T10:19:16;2.1;;;1.2;;
77802;SDS011;66993;48.256;16.422;2023-07-29T10:24:19;2.0;;;1.1;;
77802;SDS011;66993;48.256;16.422;2023-07-29T10:29:18;2.4;;;1.2;;
77802;SDS011;66993;48.256;16.422;2023-07-29T10:34:20;2.3;;;1.1;;
77802;SDS011;66993;48.256;16.422;2023-07-29T10:39:21;2.1;;;1.3;;
77802;SDS011;66993;48.256;16.422;2023-07-29T10:49:24;2.4;;;1.2;;
77802;SDS011;66993;48.256;16.422;2023-07-29T10:54:26;2.2;;;1.3;;
77802;SDS011;66993;48.256;16.422;2023-07-29T10:59:31;2.8;;;1.3;;
77802;SDS011;66993;48.256;16.422;2023-07-29T11:04:28;2.5;;;1.4;;
77802;SDS011;66993;48.256;16.422;2023-07-29T11:14:30;2.0;;;1.1;;
77802;SDS011;66993;48.256;16.422;2023-07-29T11:19:32;2.0;;;1.2;;
77802;SDS011;66993;48.256;16.422;2023-07-29T11:24:33;2.9;;;1.3;;
77802;SDS011;66993;48.256;16.422;2023-07-29T11:29:34;2.2;;;1.2;;
77802;SDS011;66993;48.256;16.422;2023-07-29T11:34:36;2.6;;;1.5;;
77802;SDS011;66993;48.256;16.422;2023-07-29T11:39:39;3.1;;;1.5;;
77802;SDS011;66993;48.256;16.422;2023-07-29T11:44:38;2.6;;;1.5;;
77802;SDS011;66993;48.256;16.422;2023-07-29T11:49:40;2.1;;;1.2;;
77802;SDS011;66993;48.256;16.422;2023-07-29T11:54:41;2.1;;;1.2;;
77802;SDS011;66993;48.256;16.422;2023-07-29T11:59:42;2.3;;;1.3;;
77802;SDS011;66993;48.256;16.422;2023-07-29T12:04:45;2.3;;;1.2;;
77802;SDS011;66993;48.256;16.422;2023-07-29T12:09:46;2.7;;;1.5;;
77802;SDS011;66993;48.256;16.422;2023-07-29T12:14:47;1.8;;;1.1;;
77802;SDS011;66993;48.256;16.422;2023-07-29T12:19:48;2.3;;;1.2;;
77802;SDS011;66993;48.256;16.422;2023-07-29T12:24:50;4.0;;;1.4;;
77802;SDS011;66993;48.256;16.422;2023-07-29T12:29:51;2.3;;;1.2;;
77802;SDS011;66993;48.256;16.422;2023-07-29T12:34:53;3.0;;;1.6;;
77802;SDS011;66993;48.256;16.422;2023-07-29T12:39:53;2.7;;;1.4;;
77802;SDS011;66993;48.256;16.422;2023-07-29T12:44:55;2.7;;;1.5;;
77802;SDS011;66993;48.256;16.422;2023-07-29T12:49:56;3.8;;;1.7;;
77802;SDS011;66993;48.256;16.422;2023-07-29T12:54:58;3.0;;;1.4;;
77802;SDS011;66993;48.256;16.422;2023-07-29T12:59:59;3.3;;;1.8;;
77802;SDS011;66993;48.256;16.422;2023-07-29T13:05:00;3.5;;;1.7;;
77802;SDS011;66993;48.256;16.422;2023-07-29T13:10:02;4.4;;;1.4;;
77802;SDS011;66993;48.256;16.422;2023-07-29T13:15:04;3.2;;;1.6;;
77802;SDS011;66993;48.256;16.422;2023-07-29T13:20:05;3.3;;;1.3;;
77802;SDS011;66993;48.256;16.422;2023-07-29T13:25:06;3.4;;;1.4;;
77802;SDS011;66993;48.256;16.422;2023-07-29T13:30:08;2.9;;;1.3;;
77802;SDS011;66993;48.256;16.422;2023-07-29T13:35:08;2.9;;;1.5;;
77802;SDS011;66993;48.256;16.422;2023-07-29T13:40:10;3.0;;;1.4;;
77802;SDS011;66993;48.256;16.422;2023-07-29T13:45:11;2.7;;;1.3;;
77802;SDS011;66993;48.256;16.422;2023-07-29T13:50:12;3.5;;;1.4;;
77802;SDS011;66993;48.256;16.422;2023-07-29T13:55:14;3.6;;;1.5;;
77802;SDS011;66993;48.256;16.422;2023-07-29T14:00:15;2.6;;;1.5;;
77802;SDS011;66993;48.256;16.422;2023-07-29T14:05:17;2.8;;;1.6;;
77802;SDS011;66993;48.256;16.422;2023-07-29T14:10:17;2.4;;;1.3;;
77802;SDS011;66993;48.256;16.422;2023-07-29T14:15:20;3.2;;;1.6;;
77802;SDS011;66993;48.256;16.422;2023-07-29T14:20:20;3.0;;;1.5;;
77802;SDS011;66993;48.256;16.422;2023-07-29T14:25:22;3.9;;;1.7;;
77802;SDS011;66993;48.256;16.422;2023-07-29T14:30:23;3.7;;;1.8;;
77802;SDS011;66993;48.256;16.422;2023-07-29T14:35:24;3.0;;;1.6;;
77802;SDS011;66993;48.256;16.422;2023-07-29T14:40:26;2.8;;;1.6;;
77802;SDS011;66993;48.256;16.422;2023-07-29T14:45:28;2.7;;;1.4;;
77802;SDS011;66993;48.256;16.422;2023-07-29T14:50:28;2.7;;;1.5;;
77802;SDS011;66993;48.256;16.422;2023-07-29T14:55:30;2.9;;;1.7;;
77802;SDS011;66993;48.256;16.422;2023-07-29T15:00:31;2.5;;;1.5;;
77802;SDS011;66993;48.256;16.422;2023-07-29T15:05:32;3.9;;;1.6;;
77802;SDS011;66993;48.256;16.422;2023-07-29T15:10:33;3.0;;;1.6;;
77802;SDS011;66993;48.256;16.422;2023-07-29T15:15:35;3.7;;;1.6;;
77802;SDS011;66993;48.256;16.422;2023-07-29T15:20:36;4.1;;;1.6;;
77802;SDS011;66993;48.256;16.422;2023-07-29T15:25:38;3.6;;;1.9;;
77802;SDS011;66993;48.256;16.422;2023-07-29T15:30:39;3.5;;;1.9;;
77802;SDS011;66993;48.256;16.422;2023-07-29T15:35:40;5.1;;;2.5;;
77802;SDS011;66993;48.256;16.422;2023-07-29T15:40:41;3.7;;;2.4;;
77802;SDS011;66993;48.256;16.422;2023-07-29T15:45:43;3.7;;;1.9;;
77802;SDS011;66993;48.256;16.422;2023-07-29T15:50:44;3.2;;;1.9;;
77802;SDS011;66993;48.256;16.422;2023-07-29T15:55:46;3.8;;;2.0;;
77802;SDS011;66993;48.256;16.422;2023-07-29T16:00:47;3.8;;;2.1;;
77802;SDS011;66993;48.256;16.422;2023-07-29T16:05:48;3.3;;;2.0;;
77802;SDS011;66993;48.256;16.422;2023-07-29T16:10:50;4.8;;;2.2;;
77802;SDS011;66993;48.256;16.422;2023-07-29T16:15:51;4.2;;;2.0;;
77802;SDS011;66993;48.256;16.422;2023-07-29T16:20:52;4.1;;;2.0;;
77802;SDS011;66993;48.256;16.422;2023-07-29T16:25:53;4.2;;;2.1;;
77802;SDS011;66993;48.256;16.422;2023-07-29T16:30:54;3.5;;;2.0;;
77802;SDS011;66993;48.256;16.422;2023-07-29T16:35:56;3.7;;;2.0;;
77802;SDS011;66993;48.256;16.422;2023-07-29T16:40:57;3.7;;;1.9;;
77802;SDS011;66993;48.256;16.422;2023-07-29T16:45:59;3.4;;;2.1;;
77802;SDS011;66993;48.256;16.422;2023-07-29T16:51:00;4.1;;;2.0;;
77802;SDS011;66993;48.256;16.422;2023-07-29T16:56:01;6.9;;;2.2;;
77802;SDS011;66993;48.256;16.422;2023-07-29T17:01:02;4.4;;;2.2;;
77802;SDS011;66993;48.256;16.422;2023-07-29T17:06:04;3.7;;;2.2;;
77802;SDS011;66993;48.256;16.422;2023-07-29T17:11:05;5.3;;;2.3;;
77802;SDS011;66993;48.256;16.422;2023-07-29T17:16:07;4.6;;;2.7;;
77802;SDS011;66993;48.256;16.422;2023-07-29T17:21:07;4.0;;;2.0;;
77802;SDS011;66993;48.256;16.422;2023-07-29T17:26:09;4.1;;;2.2;;
77802;SDS011;66993;48.256;16.422;2023-07-29T17:31:10;4.0;;;2.0;;
77802;SDS011;66993;48.256;16.422;2023-07-29T17:36:11;4.6;;;2.2;;
77802;SDS011;66993;48.256;16.422;2023-07-29T17:41:13;4.0;;;2.1;;
77802;SDS011;66993;48.256;16.422;2023-07-29T17:46:14;3.6;;;1.9;;
77802;SDS011;66993;48.256;16.422;2023-07-29T17:51:15;8.3;;;4.5;;
77802;SDS011;66993;48.256;16.422;2023-07-29T17:56:16;4.5;;;2.6;;
77802;SDS011;66993;48.256;16.422;2023-07-29T18:01:18;3.4;;;2.0;;
77802;SDS011;66993;48.256;16.422;2023-07-29T18:06:19;2.8;;;1.6;;
77802;SDS011;66993;48.256;16.422;2023-07-29T18:11:20;2.7;;;1.6;;
77802;SDS011;66993;48.256;16.422;2023-07-29T18:16:22;3.0;;;1.6;;
77802;SDS011;66993;48.256;16.422;2023-07-29T18:21:23;3.4;;;1.7;;
77802;SDS011;66993;48.256;16.422;2023-07-29T18:26:25;3.0;;;1.7;;
77802;SDS011;66993;48.256;16.422;2023-07-29T18:31:25;3.2;;;1.9;;
77802;SDS011;66993;48.256;16.422;2023-07-29T18:36:28;3.8;;;1.5;;
77802;SDS011;66993;48.256;16.422;2023-07-29T18:41:28;2.8;;;1.6;;
77802;SDS011;66993;48.256;16.422;2023-07-29T18:46:29;2.8;;;1.5;;
77802;SDS011;66993;48.256;16.422;2023-07-29T18:51:31;2.8;;;1.8;;
77802;SDS011;66993;48.256;16.422;2023-07-29T18:56:32;2.8;;;1.7;;
77802;SDS011;66993;48.256;16.422;2023-07-29T19:01:33;3.2;;;1.6;;
77802;SDS011;66993;48.256;16.422;2023-07-29T19:06:35;3.0;;;1.8;;
77802;SDS011;66993;48.256;16.422;2023-07-29T19:11:36;3.9;;;1.7;;
77802;SDS011;66993;48.256;16.422;2023-07-29T19:16:37;3.2;;;1.8;;
77802;SDS011;66993;48.256;16.422;2023-07-29T19:21:38;3.4;;;1.7;;
77802;SDS011;66993;48.256;16.422;2023-07-29T19:26:40;3.5;;;1.9;;
77802;SDS011;66993;48.256;16.422;2023-07-29T19:31:41;3.9;;;2.0;;
77802;SDS011;66993;48.256;16.422;2023-07-29T19:36:43;3.5;;;1.7;;
77802;SDS011;66993;48.256;16.422;2023-07-29T19:41:43;3.4;;;1.6;;
77802;SDS011;66993;48.256;16.422;2023-07-29T19:46:45;3.0;;;1.6;;
77802;SDS011;66993;48.256;16.422;2023-07-29T19:51:46;2.8;;;1.6;;
77802;SDS011;66993;48.256;16.422;2023-07-29T19:56:47;3.7;;;1.7;;
77802;SDS011;66993;48.256;16.422;2023-07-29T20:01:49;3.2;;;1.6;;
77802;SDS011;66993;48.256;16.422;2023-07-29T20:06:51;3.2;;;1.9;;
77802;SDS011;66993;48.256;16.422;2023-07-29T20:11:51;3.6;;;1.9;;
77802;SDS011;66993;48.256;16.422;2023-07-29T20:16:52;4.3;;;2.0;;
77802;SDS011;66993;48.256;16.422;2023-07-29T20:21:54;3.2;;;1.9;;
77802;SDS011;66993;48.256;16.422;2023-07-29T20:26:55;4.2;;;1.9;;
77802;SDS011;66993;48.256;16.422;2023-07-29T20:31:56;4.0;;;1.9;;
77802;SDS011;66993;48.256;16.422;2023-07-29T20:36:58;2.6;;;1.6;;
77802;SDS011;66993;48.256;16.422;2023-07-29T20:41:59;4.1;;;2.1;;
77802;SDS011;66993;48.256;16.422;2023-07-29T20:47:00;3.3;;;1.8;;
77802;SDS011;66993;48.256;16.422;2023-07-29T20:52:01;3.7;;;2.0;;
77802;SDS011;66993;48.256;16.422;2023-07-29T20:57:03;4.8;;;2.2;;
77802;SDS011;66993;48.256;16.422;2023-07-29T21:02:04;4.2;;;1.9;;
77802;SDS011;66993;48.256;16.422;2023-07-29T21:07:06;3.5;;;2.0;;
77802;SDS011;66993;48.256;16.422;2023-07-29T21:12:07;3.9;;;2.1;;
77802;SDS011;66993;48.256;16.422;2023-07-29T21:17:09;3.9;;;1.9;;
77802;SDS011;66993;48.256;16.422;2023-07-29T21:22:09;3.5;;;2.2;;
77802;SDS011;66993;48.256;16.422;2023-07-29T21:27:11;3.9;;;2.0;;
77802;SDS011;66993;48.256;16.422;2023-07-29T21:32:12;4.1;;;1.9;;
77802;SDS011;66993;48.256;16.422;2023-07-29T21:37:13;4.4;;;2.2;;
77802;SDS011;66993;48.256;16.422;2023-07-29T21:42:14;5.5;;;1.9;;
77802;SDS011;66993;48.256;16.422;2023-07-29T21:47:16;3.6;;;2.0;;
77802;SDS011;66993;48.256;16.422;2023-07-29T21:52:17;3.5;;;1.7;;
77802;SDS011;66993;48.256;16.422;2023-07-29T21:57:19;4.2;;;1.9;;
77802;SDS011;66993;48.256;16.422;2023-07-29T22:02:20;3.2;;;1.9;;
77802;SDS011;66993;48.256;16.422;2023-07-29T22:07:21;3.7;;;1.9;;
77802;SDS011;66993;48.256;16.422;2023-07-29T22:12:22;3.4;;;2.0;;
77802;SDS011;66993;48.256;16.422;2023-07-29T22:17:24;3.9;;;2.0;;
77802;SDS011;66993;48.256;16.422;2023-07-29T22:22:25;3.5;;;2.0;;
77802;SDS011;66993;48.256;16.422;2023-07-29T22:27:26;3.9;;;2.1;;
77802;SDS011;66993;48.256;16.422;2023-07-29T22:32:27;3.9;;;2.0;;
77802;SDS011;66993;48.256;16.422;2023-07-29T22:37:29;3.3;;;2.0;;
77802;SDS011;66993;48.256;16.422;2023-07-29T22:42:30;4.1;;;2.2;;
77802;SDS011;66993;48.256;16.422;2023-07-29T22:47:31;3.9;;;1.9;;
77802;SDS011;66993;48.256;16.422;2023-07-29T22:52:33;4.3;;;2.2;;
77802;SDS011;66993;48.256;16.422;2023-07-29T22:57:34;3.5;;;2.0;;
77802;SDS011;66993;48.256;16.422;2023-07-29T23:02:35;3.8;;;2.0;;
77802;SDS011;66993;48.256;16.422;2023-07-29T23:07:37;4.9;;;2.2;;
77802;SDS011;66993;48.256;16.422;2023-07-29T23:12:38;3.7;;;2.1;;
77802;SDS011;66993;48.256;16.422;2023-07-29T23:17:40;4.1;;;2.1;;
77802;SDS011;66993;48.256;16.422;2023-07-29T23:22:40;3.7;;;2.1;;
77802;SDS011;66993;48.256;16.422;2023-07-29T23:27:42;4.0;;;2.3;;
77802;SDS011;66993;48.256;16.422;2023-07-29T23:32:43;3.7;;;1.9;;
77802;SDS011;66993;48.256;16.422;2023-07-29T23:37:44;4.2;;;2.2;;
77802;SDS011;66993;48.256;16.422;2023-07-29T23:42:45;3.3;;;2.1;;
77802;SDS011;66993;48.256;16.422;2023-07-29T23:47:47;4.2;;;2.1;;
77802;SDS011;66993;48.256;16.422;2023-07-29T23:52:48;3.8;;;2.4;;
77802;SDS011;66993;48.256;16.422;2023-07-29T23:57:50;4.0;;;2.4;;
